Time;durP1;ratioP1;P1;durP2;ratioP2;P2;SDS_P1;SDS_P2;PMS_P1;PMS_P2;Temp;Humidity;BMP_temperature;BMP_pressure;BME280_temperature;BME280_humidity;BME280_pressure;Samples;Min_cycle;Max_cycle;Signal;HPM_P1;HPM_P2
2021/03/21 00:00:36;;;;;;;12.45;7.32;;;;;;;;;;5000290;28;20037;-55
2021/03/21 00:03:03;;;;;;;11.95;7.53;;;6.60;99.90;;;;;;5017529;28;20029;-54
2021/03/21 00:05:29;;;;;;;10.23;6.80;;;;;;;;;;5024285;28;20077;-55
2021/03/21 00:08:04;;;;;;;13.32;7.18;;;6.60;99.90;;;;;;5030753;28;20037;-57
2021/03/21 00:10:32;;;;;;;13.95;7.78;;;6.70;99.90;;;;;;5041036;28;20369;-55
2021/03/21 00:12:59;;;;;;;14.65;8.48;;;6.80;99.90;;;;;;5054939;28;20029;-55
2021/03/21 00:15:27;;;;;;;11.52;7.20;;;6.80;99.90;;;;;;5055115;28;20028;-56
2021/03/21 00:17:54;;;;;;;14.05;7.60;;;6.90;99.90;;;;;;5054971;28;20091;-55
2021/03/21 00:20:25;;;;;;;12.02;7.13;;;6.80;99.90;;;;;;5054662;28;20021;-54
2021/03/21 00:22:51;;;;;;;11.88;7.10;;;6.80;99.90;;;;;;5046814;28;20022;-55
2021/03/21 00:25:20;;;;;;;12.43;7.20;;;6.80;99.90;;;;;;5034951;28;20028;-56
2021/03/21 00:27:46;;;;;;;12.52;7.18;;;6.80;99.90;;;;;;5034783;28;20025;-57
2021/03/21 00:30:16;;;;;;;14.90;7.53;;;6.70;99.90;;;;;;5016376;28;20095;-56
2021/03/21 00:32:42;;;;;;;10.80;6.95;;;6.60;99.90;;;;;;5034399;28;20496;-56
2021/03/21 00:35:08;;;;;;;15.88;7.60;;;6.50;99.90;;;;;;5015953;28;20038;-57
2021/03/21 00:37:34;;;;;;;15.85;8.07;;;6.40;99.90;;;;;;5034320;28;20029;-56
2021/03/21 00:39:59;;;;;;;14.30;7.20;;;6.40;99.90;;;;;;5034757;28;20030;-56
2021/03/21 00:42:25;;;;;;;16.83;8.82;;;6.40;99.90;;;;;;5034638;28;20108;-57
2021/03/21 00:44:51;;;;;;;16.15;9.32;;;6.40;99.90;;;;;;5034611;28;20413;-54
2021/03/21 00:47:17;;;;;;;15.88;9.52;;;6.40;99.90;;;;;;5034223;28;20075;-57
2021/03/21 00:49:43;;;;;;;14.48;9.32;;;;;;;;;;5033927;28;20021;-56
2021/03/21 00:52:08;;;;;;;17.98;10.65;;;6.30;99.90;;;;;;5034244;28;20033;-55
2021/03/21 00:54:34;;;;;;;16.02;8.98;;;6.30;99.90;;;;;;5034457;28;20033;-55
2021/03/21 00:57:00;;;;;;;17.60;9.60;;;;;;;;;;5034212;28;20022;-55
2021/03/21 00:59:26;;;;;;;16.85;9.88;;;6.20;99.90;;;;;;5036540;28;20025;-59
2021/03/21 01:01:52;;;;;;;18.15;10.55;;;;;;;;;;5054000;28;20029;-54
2021/03/21 01:04:18;;;;;;;17.02;10.43;;;6.00;99.90;;;;;;5049358;28;20025;-57
2021/03/21 01:06:44;;;;;;;18.75;10.02;;;5.80;99.90;;;;;;4994532;28;20137;-55
2021/03/21 01:09:14;;;;;;;17.88;10.35;;;5.90;99.90;;;;;;5033816;28;20052;-58
2021/03/21 01:11:41;;;;;;;17.75;10.50;;;5.80;99.90;;;;;;5018344;28;20131;-57
2021/03/21 01:14:08;;;;;;;16.75;9.70;;;6.00;99.90;;;;;;5018964;28;20033;-57
2021/03/21 01:16:39;;;;;;;16.80;8.98;;;5.80;99.90;;;;;;5018191;28;20546;-55
2021/03/21 01:19:12;;;;;;;16.70;9.05;;;5.80;99.90;;;;;;5002344;28;20072;-57
2021/03/21 01:21:44;;;;;;;21.42;10.73;;;5.70;99.90;;;;;;5053412;28;20061;-57
2021/03/21 01:24:10;;;;;;;17.60;10.50;;;;;;;;;;5003149;28;20066;-55
2021/03/21 01:26:36;;;;;;;15.88;8.88;;;5.60;99.90;;;;;;5053103;28;20025;-56
2021/03/21 01:29:02;;;;;;;16.42;9.15;;;5.30;99.90;;;;;;5049743;28;20326;-57
2021/03/21 01:31:28;;;;;;;14.63;8.90;;;;;;;;;;4998994;28;20508;-57
2021/03/21 01:33:54;;;;;;;17.17;9.15;;;5.00;99.90;;;;;;5033782;28;20033;-55
2021/03/21 01:36:26;;;;;;;12.90;8.77;;;4.90;99.90;;;;;;4972620;28;20102;-57
2021/03/21 01:38:53;;;;;;;15.73;9.20;;;4.70;99.90;;;;;;4972453;28;20070;-57
2021/03/21 01:41:28;;;;;;;13.63;7.40;;;4.70;99.90;;;;;;4972362;28;20058;-56
2021/03/21 01:43:54;;;;;;;14.93;8.20;;;4.60;99.90;;;;;;4938595;28;20034;-55
2021/03/21 01:46:35;;;;;;;14.23;7.90;;;4.40;99.90;;;;;;4972674;28;20042;-57
2021/03/21 01:49:22;;;;;;;13.80;7.68;;;4.60;99.90;;;;;;4973416;28;20035;-56
2021/03/21 01:51:50;;;;;;;11.98;7.85;;;4.70;99.90;;;;;;4976532;28;20137;-54
2021/03/21 01:54:17;;;;;;;14.77;8.23;;;4.80;99.90;;;;;;4976821;28;20038;-54
2021/03/21 01:56:44;;;;;;;14.45;8.23;;;4.80;99.90;;;;;;4941236;28;20038;-55
2021/03/21 01:59:18;;;;;;;12.68;7.50;;;4.90;99.90;;;;;;4976509;28;20118;-56
2021/03/21 02:01:44;;;;;;;15.30;7.75;;;5.00;99.90;;;;;;4976429;28;20038;-53
2021/03/21 02:04:10;;;;;;;14.23;8.65;;;5.00;99.90;;;;;;4976157;28;20035;-54
2021/03/21 02:06:36;;;;;;;16.20;8.48;;;;;;;;;;4989288;28;20042;-55
2021/03/21 02:09:21;;;;;;;15.05;7.25;;;5.10;99.90;;;;;;5037007;28;20022;-58
2021/03/21 02:11:55;;;;;;;16.50;7.53;;;5.20;99.90;;;;;;5036828;28;20030;-54
2021/03/21 02:14:58;;;;;;;14.07;7.90;;;5.00;99.90;;;;;;5053563;28;20036;-58
2021/03/21 02:17:33;;;;;;;12.93;8.07;;;4.90;99.90;;;;;;5041754;28;20573;-56
2021/03/21 02:31:43;;;;;;;15.40;9.05;;;5.00;99.90;;;;;;5111831;27;20491;-55
2021/03/21 02:34:29;;;;;;;13.15;8.50;;;5.10;99.90;;;;;;5111574;28;20069;-55
2021/03/21 02:37:25;;;;;;;14.60;8.07;;;5.00;99.90;;;;;;5111577;28;20051;-56
2021/03/21 02:40:00;;;;;;;12.63;7.53;;;4.90;99.90;;;;;;5110346;28;20039;-57
2021/03/21 02:42:43;;;;;;;13.80;8.35;;;4.80;99.90;;;;;;5111052;28;20027;-54
2021/03/21 02:45:20;;;;;;;14.48;8.43;;;4.70;99.90;;;;;;5048687;28;20121;-58
2021/03/21 02:47:49;;;;;;;14.10;8.63;;;4.50;99.90;;;;;;5062980;28;20059;-56
2021/03/21 02:50:14;;;;;;;13.68;8.05;;;4.30;99.90;;;;;;5068370;28;20036;-54
2021/03/21 02:52:47;;;;;;;17.02;10.00;;;4.30;99.90;;;;;;5068463;28;20036;-57
2021/03/21 02:55:31;;;;;;;17.45;8.57;;;4.10;99.90;;;;;;5068471;28;20039;-54
2021/03/21 02:58:05;;;;;;;15.75;8.13;;;4.00;99.90;;;;;;5068437;28;20610;-55
2021/03/21 03:00:36;;;;;;;15.25;8.60;;;4.20;99.90;;;;;;5068360;28;20089;-57
2021/03/21 03:03:07;;;;;;;14.93;7.72;;;4.30;99.90;;;;;;5068633;28;20051;-55
2021/03/21 03:05:38;;;;;;;14.10;7.93;;;4.40;99.90;;;;;;5051020;28;20458;-57
2021/03/21 03:08:10;;;;;;;17.27;8.80;;;4.50;99.90;;;;;;5068067;28;20514;-55
2021/03/21 03:10:50;;;;;;;17.15;8.35;;;4.50;99.90;;;;;;5068073;28;20150;-55
2021/03/21 03:13:19;;;;;;;17.38;7.95;;;4.40;99.90;;;;;;5067908;28;20128;-58
2021/03/21 03:15:45;;;;;;;13.90;8.00;;;4.50;99.90;;;;;;5082426;28;20024;-55
2021/03/21 03:18:33;;;;;;;16.20;7.88;;;4.60;99.90;;;;;;5110537;28;20027;-55
2021/03/21 03:21:14;;;;;;;14.77;7.95;;;4.60;99.90;;;;;;5105089;28;20032;-56
2021/03/21 03:23:57;;;;;;;10.98;6.68;;;4.60;99.90;;;;;;5107276;28;20054;-56
2021/03/21 03:27:03;;;;;;;12.10;7.03;;;4.30;99.90;;;;;;5110657;28;20074;-55
2021/03/21 03:29:48;;;;;;;14.65;8.13;;;4.10;99.90;;;;;;5027775;28;20140;-55
2021/03/21 03:32:14;;;;;;;14.60;7.38;;;4.00;99.90;;;;;;5016447;28;20042;-57
2021/03/21 03:34:47;;;;;;;13.80;8.15;;;4.00;99.90;;;;;;5014457;28;20030;-55
2021/03/21 03:37:14;;;;;;;14.80;8.13;;;4.00;99.90;;;;;;5014479;28;20121;-57
2021/03/21 03:39:40;;;;;;;13.95;7.57;;;4.00;99.90;;;;;;4965497;28;20038;-55
2021/03/21 03:42:35;;;;;;;11.63;6.72;;;4.00;99.90;;;;;;4981887;28;20042;-55
2021/03/21 03:45:08;;;;;;;12.43;7.07;;;4.00;99.90;;;;;;5014456;28;20053;-57
2021/03/21 03:47:58;;;;;;;14.00;6.97;;;4.00;99.90;;;;;;5014353;28;20033;-57
2021/03/21 03:50:46;;;;;;;14.75;6.80;;;4.00;99.90;;;;;;5014397;28;20034;-55
2021/03/21 03:53:33;;;;;;;13.23;7.45;;;3.90;99.90;;;;;;5014317;28;20046;-54
2021/03/21 03:56:13;;;;;;;16.95;7.38;;;3.80;99.90;;;;;;5014187;28;20516;-56
2021/03/21 03:58:49;;;;;;;13.70;8.02;;;3.80;99.90;;;;;;5014204;28;20029;-55
2021/03/21 04:01:36;;;;;;;13.40;6.45;;;3.80;99.90;;;;;;5071822;28;20045;-55
2021/03/21 04:04:43;;;;;;;10.35;6.32;;;3.70;99.90;;;;;;5075812;28;20032;-56
2021/03/21 04:07:13;;;;;;;9.90;5.80;;;;;;;;;;5068016;28;20040;-56
2021/03/21 04:09:47;;;;;;;11.00;6.20;;;;;;;;;;5072691;28;20028;-54
2021/03/21 04:12:19;;;;;;;11.45;6.55;;;3.40;99.90;;;;;;5075701;28;20024;-55
2021/03/21 04:14:47;;;;;;;10.15;6.25;;;3.50;99.90;;;;;;5075924;28;20056;-55
2021/03/21 04:17:24;;;;;;;9.00;5.95;;;3.50;99.90;;;;;;5075694;28;20100;-54
2021/03/21 04:19:55;;;;;;;9.93;6.13;;;3.70;99.90;;;;;;5075688;28;20071;-56
2021/03/21 04:22:29;;;;;;;10.48;6.75;;;3.70;99.90;;;;;;5075581;28;20040;-55
2021/03/21 04:25:18;;;;;;;12.93;6.13;;;3.70;99.90;;;;;;5075706;28;20383;-57
2021/03/21 04:28:24;;;;;;;10.95;6.13;;;3.80;99.90;;;;;;5040163;28;20382;-55
2021/03/21 04:31:01;;;;;;;11.18;6.43;;;3.60;99.90;;;;;;5075043;28;20045;-54
2021/03/21 04:33:35;;;;;;;12.48;6.95;;;3.70;99.90;;;;;;5075265;28;20100;-55
2021/03/21 04:36:06;;;;;;;13.40;6.60;;;3.70;99.90;;;;;;5075446;28;20066;-57
2021/03/21 04:39:10;;;;;;;12.23;6.18;;;3.70;99.90;;;;;;5007865;28;20556;-58
2021/03/21 04:41:47;;;;;;;14.82;7.88;;;3.70;99.90;;;;;;5040145;28;20119;-56
2021/03/21 04:44:26;;;;;;;11.25;6.45;;;3.70;99.90;;;;;;5074152;28;20529;-58
2021/03/21 04:46:59;;;;;;;10.98;5.18;;;3.60;99.90;;;;;;5075076;28;20463;-54
2021/03/21 04:49:25;;;;;;;12.68;7.80;;;3.30;99.90;;;;;;5075132;28;20051;-57
2021/03/21 04:52:01;;;;;;;12.05;6.13;;;3.50;99.90;;;;;;5074895;28;20017;-57
2021/03/21 04:54:35;;;;;;;12.85;7.43;;;3.40;99.90;;;;;;5075022;28;20024;-54
2021/03/21 04:57:16;;;;;;;13.95;6.65;;;3.40;99.90;;;;;;5075070;28;20090;-57
2021/03/21 04:59:43;;;;;;;10.88;5.88;;;3.50;99.90;;;;;;5074691;28;20024;-55
2021/03/21 05:02:13;;;;;;;10.57;6.53;;;3.60;99.90;;;;;;5074622;28;20024;-57
2021/03/21 05:04:46;;;;;;;11.82;6.65;;;3.50;99.90;;;;;;5074472;28;20027;-55
2021/03/21 05:07:27;;;;;;;8.80;5.65;;;3.50;99.90;;;;;;5068600;28;20776;-54
2021/03/21 05:10:01;;;;;;;11.18;6.40;;;3.50;99.90;;;;;;5014860;28;20098;-57
2021/03/21 05:12:33;;;;;;;10.52;6.00;;;3.50;99.90;;;;;;5054496;28;20036;-57
2021/03/21 05:15:12;;;;;;;;;;;3.30;99.90;;;;;;5068761;28;20104;-54
2021/03/21 05:17:51;;;;;;;10.57;6.07;;;3.40;99.90;;;;;;5074236;28;19904;-58
2021/03/21 05:20:22;;;;;;;10.20;5.75;;;3.50;99.90;;;;;;5074171;28;20471;-55
2021/03/21 05:23:16;;;;;;;9.80;5.67;;;3.60;99.90;;;;;;5074526;28;20025;-55
2021/03/21 05:25:52;;;;;;;10.38;5.53;;;3.80;99.90;;;;;;5019447;28;20788;-57
2021/03/21 05:28:41;;;;;;;9.10;5.28;;;3.90;99.90;;;;;;5053651;28;20487;-57
2021/03/21 05:31:09;;;;;;;9.43;5.57;;;3.90;99.90;;;;;;5054019;28;20045;-54
2021/03/21 05:33:35;;;;;;;12.13;7.07;;;3.70;99.90;;;;;;5044606;28;20059;-56
2021/03/21 05:36:31;;;;;;;12.70;6.45;;;3.90;99.90;;;;;;5074258;28;20024;-58
2021/03/21 05:39:06;;;;;;;11.65;6.35;;;3.90;99.90;;;;;;4992421;28;20069;-56
2021/03/21 05:41:59;;;;;;;10.38;5.35;;;3.90;99.90;;;;;;4992635;28;20026;-55
2021/03/21 05:44:58;;;;;;;9.38;5.57;;;3.90;99.90;;;;;;4992556;28;20165;-54
2021/03/21 05:47:48;;;;;;;11.07;6.43;;;3.90;99.90;;;;;;4992544;28;20030;-57
2021/03/21 05:50:54;;;;;;;10.88;6.20;;;3.90;99.90;;;;;;4992416;28;20560;-57
2021/03/21 05:53:34;;;;;;;12.73;7.15;;;3.80;99.90;;;;;;4992494;28;20069;-57
2021/03/21 05:56:22;;;;;;;11.57;6.13;;;3.80;99.90;;;;;;4976198;28;20031;-56
2021/03/21 05:59:15;;;;;;;14.40;7.78;;;4.00;99.90;;;;;;4991510;28;20026;-54
2021/03/21 06:02:18;;;;;;;11.02;6.65;;;3.80;99.90;;;;;;4982569;28;20030;-55
2021/03/21 06:05:10;;;;;;;;;;;4.00;99.90;;;;;;4983396;28;20022;-57
2021/03/21 06:08:17;;;;;;;9.40;5.65;;;3.80;99.90;;;;;;4982456;28;19909;-56
2021/03/21 06:11:20;;;;;;;9.05;5.80;;;3.80;99.90;;;;;;4982881;28;20077;-54
2021/03/21 06:13:46;;;;;;;10.63;6.95;;;3.80;99.90;;;;;;4952887;28;20687;-56
2021/03/21 06:16:15;;;;;;;10.95;5.32;;;;;;;;;;5015439;28;20031;-56
2021/03/21 06:18:59;;;;;;;11.18;6.38;;;3.50;99.90;;;;;;5064410;28;20040;-56
2021/03/21 06:21:40;;;;;;;12.18;6.90;;;3.50;99.90;;;;;;5063613;28;20119;-54
2021/03/21 06:24:30;;;;;;;11.85;7.07;;;3.50;99.90;;;;;;5029031;28;20041;-54
2021/03/21 06:27:06;;;;;;;9.35;6.53;;;3.50;99.90;;;;;;5011323;28;20207;-55
2021/03/21 06:30:09;;;;;;;8.88;6.13;;;3.60;99.90;;;;;;5060070;28;20059;-55
2021/03/21 06:32:44;;;;;;;8.80;5.68;;;3.70;99.90;;;;;;5062887;28;20025;-55
2021/03/21 06:35:35;;;;;;;10.45;6.25;;;3.60;99.90;;;;;;5063772;28;20029;-53
2021/03/21 06:38:15;;;;;;;11.77;6.70;;;3.60;99.90;;;;;;5063364;28;20025;-56
2021/03/21 06:41:23;;;;;;;9.15;5.65;;;3.50;99.90;;;;;;5027662;28;20037;-55
2021/03/21 06:44:11;;;;;;;10.68;6.43;;;3.60;99.90;;;;;;5063299;28;20057;-57
2021/03/21 06:46:45;;;;;;;11.85;6.68;;;3.60;99.90;;;;;;5062355;28;20377;-56
2021/03/21 06:49:17;;;;;;;11.23;6.60;;;3.80;99.90;;;;;;5061215;28;20036;-56
2021/03/21 06:51:53;;;;;;;12.43;6.85;;;3.70;99.90;;;;;;5063013;28;20032;-56
2021/03/21 06:54:35;;;;;;;11.38;6.68;;;3.70;99.90;;;;;;5062586;28;20025;-56
2021/03/21 06:57:22;;;;;;;12.90;7.22;;;3.80;99.90;;;;;;5062615;28;20021;-54
2021/03/21 07:00:03;;;;;;;8.55;5.85;;;3.80;99.90;;;;;;5063484;28;20037;-55
2021/03/21 07:02:54;;;;;;;12.23;6.95;;;3.70;99.90;;;;;;5056692;28;20113;-55
2021/03/21 07:05:32;;;;;;;10.73;6.40;;;3.60;99.90;;;;;;5057567;28;20433;-54
2021/03/21 07:08:22;;;;;;;13.52;6.68;;;3.60;99.90;;;;;;5063384;28;20025;-56
2021/03/21 07:11:24;;;;;;;12.88;6.53;;;3.60;99.90;;;;;;5067196;28;20025;-55
2021/03/21 07:14:18;;;;;;;10.30;6.00;;;3.60;99.90;;;;;;5066396;28;20052;-56
2021/03/21 07:17:11;;;;;;;10.38;6.10;;;3.70;99.90;;;;;;5067215;28;20033;-55
2021/03/21 07:20:04;;;;;;;10.38;5.55;;;3.80;99.90;;;;;;5065838;28;20057;-57
2021/03/21 07:22:44;;;;;;;10.25;5.30;;;3.70;99.90;;;;;;5064331;28;20056;-55
2021/03/21 07:25:30;;;;;;;11.75;6.07;;;3.60;99.90;;;;;;5055806;28;20043;-55
2021/03/21 07:27:58;;;;;;;10.48;6.20;;;3.60;99.90;;;;;;5017385;28;20613;-57
2021/03/21 07:30:35;;;;;;;11.32;6.25;;;3.50;99.90;;;;;;5071086;28;20127;-55
2021/03/21 07:33:22;;;;;;;12.77;5.60;;;3.30;99.90;;;;;;5067593;28;20086;-56
2021/03/21 07:35:54;;;;;;;13.30;7.10;;;3.50;99.90;;;;;;5059050;28;20066;-58
2021/03/21 07:38:44;;;;;;;10.05;6.25;;;3.50;99.90;;;;;;5028159;28;20030;-55
2021/03/21 07:41:18;;;;;;;13.00;6.50;;;3.70;99.90;;;;;;5029322;28;20033;-53
2021/03/21 07:44:30;;;;;;;12.48;6.75;;;3.50;99.90;;;;;;5027689;28;20029;-56
2021/03/21 07:47:10;;;;;;;13.13;7.22;;;3.40;99.90;;;;;;4975364;28;20051;-56
2021/03/21 07:49:48;;;;;;;11.85;6.40;;;3.60;99.90;;;;;;4986718;28;20426;-57
2021/03/21 07:52:24;;;;;;;10.30;6.03;;;3.60;99.90;;;;;;4994654;28;20034;-56
2021/03/21 07:55:00;;;;;;;12.65;6.82;;;3.50;99.90;;;;;;4971859;28;20041;-57
2021/03/21 07:58:00;;;;;;;12.00;6.38;;;3.50;99.90;;;;;;4994215;28;20038;-54
2021/03/21 08:00:26;;;;;;;10.32;6.38;;;3.60;99.90;;;;;;4989039;28;20440;-56
2021/03/21 08:03:21;;;;;;;11.50;6.78;;;3.40;99.90;;;;;;4923805;28;20038;-54
2021/03/21 08:05:54;;;;;;;12.68;6.03;;;3.40;99.90;;;;;;4936570;29;20551;-57
2021/03/21 08:08:24;;;;;;;10.82;5.97;;;3.40;99.90;;;;;;4922085;29;20035;-55
2021/03/21 08:10:55;;;;;;;12.35;6.90;;;3.20;99.90;;;;;;4955805;29;20043;-56
2021/03/21 08:13:38;;;;;;;12.82;6.82;;;3.30;99.90;;;;;;4952457;29;20087;-56
2021/03/21 08:16:04;;;;;;;11.60;6.60;;;3.20;99.90;;;;;;4948967;29;20073;-57
2021/03/21 08:18:34;;;;;;;12.02;6.95;;;3.30;99.90;;;;;;4955279;28;20423;-56
2021/03/21 08:21:02;;;;;;;12.88;6.72;;;;;;;;;;4955615;29;20039;-56
2021/03/21 08:23:30;;;;;;;16.75;8.38;;;3.00;99.90;;;;;;4969955;28;20030;-55
2021/03/21 08:26:00;;;;;;;15.10;7.50;;;3.20;99.90;;;;;;4978796;28;20493;-55
2021/03/21 08:28:35;;;;;;;12.30;7.10;;;3.10;99.90;;;;;;4974523;28;20023;-54
2021/03/21 08:31:10;;;;;;;12.88;7.75;;;3.30;99.90;;;;;;4974413;28;20061;-56
2021/03/21 08:33:38;;;;;;;12.82;7.53;;;3.50;99.90;;;;;;4982367;28;20466;-56
2021/03/21 08:36:25;;;;;;;11.02;5.88;;;3.40;99.90;;;;;;4993860;28;20030;-54
2021/03/21 08:39:19;;;;;;;13.82;6.47;;;3.40;99.90;;;;;;4993853;28;20034;-56
2021/03/21 08:42:05;;;;;;;11.82;6.32;;;3.30;99.90;;;;;;4988763;28;20052;-54
2021/03/21 08:44:42;;;;;;;14.73;6.70;;;3.40;99.90;;;;;;4964394;28;20042;-54
2021/03/21 08:47:23;;;;;;;14.25;8.05;;;3.50;99.90;;;;;;4972527;28;20038;-54
2021/03/21 08:49:53;;;;;;;14.07;7.60;;;3.50;99.90;;;;;;4972652;28;20031;-58
2021/03/21 08:52:53;;;;;;;22.25;9.93;;;3.80;99.90;;;;;;4972363;28;20034;-57
2021/03/21 08:55:30;;;;;;;10.93;6.65;;;3.80;99.90;;;;;;4953497;28;20039;-56
2021/03/21 08:57:56;;;;;;;12.70;7.18;;;3.70;99.90;;;;;;4954826;29;20110;-54
2021/03/21 09:00:33;;;;;;;13.50;7.18;;;3.80;99.90;;;;;;4972405;28;20043;-54
2021/03/21 09:02:59;;;;;;;13.88;7.03;;;3.90;99.90;;;;;;4973794;28;20390;-54
2021/03/21 09:05:25;;;;;;;11.52;7.18;;;3.90;99.90;;;;;;4973828;28;20027;-57
2021/03/21 09:07:51;;;;;;;11.05;7.25;;;3.70;99.90;;;;;;4973830;28;20041;-55
2021/03/21 09:10:23;;;;;;;14.55;8.55;;;3.70;99.90;;;;;;4973646;28;20029;-57
2021/03/21 09:12:52;;;;;;;12.10;5.95;;;3.70;99.90;;;;;;4974011;28;20026;-56
2021/03/21 09:15:27;;;;;;;15.35;7.40;;;3.60;99.90;;;;;;4973634;28;20138;-56
2021/03/21 09:18:12;;;;;;;14.57;7.68;;;3.80;99.90;;;;;;4971551;28;20117;-55
2021/03/21 09:20:41;;;;;;;11.38;6.05;;;3.70;99.90;;;;;;4976687;28;20046;-55
2021/03/21 09:23:33;;;;;;;10.73;6.45;;;3.70;99.90;;;;;;5007062;28;20614;-56
2021/03/21 09:26:01;;;;;;;12.05;7.40;;;3.70;99.90;;;;;;5008700;28;20053;-54
2021/03/21 09:28:33;;;;;;;41.42;18.98;;;3.80;99.90;;;;;;5006942;28;20042;-56
2021/03/21 09:31:03;;;;;;;29.88;16.13;;;3.60;99.90;;;;;;5010634;28;20080;-58
2021/03/21 09:33:41;;;;;;;11.13;7.90;;;3.60;99.90;;;;;;4994379;28;20440;-59
2021/03/21 09:36:16;;;;;;;11.57;7.45;;;;;;;;;;5010788;28;20051;-60
2021/03/21 09:38:50;;;;;;;14.13;7.82;;;4.00;99.90;;;;;;5010799;28;20041;-59
2021/03/21 09:41:16;;;;;;;11.77;7.00;;;3.90;99.90;;;;;;5010965;28;20556;-59
2021/03/21 09:43:42;;;;;;;14.63;7.80;;;4.00;99.90;;;;;;5010529;28;20042;-58
2021/03/21 09:46:41;;;;;;;14.85;7.68;;;4.00;99.90;;;;;;5024588;28;20033;-57
2021/03/21 09:49:33;;;;;;;18.92;9.55;;;4.00;99.90;;;;;;5017265;28;20579;-59
2021/03/21 09:52:12;;;;;;;20.90;9.93;;;3.90;99.90;;;;;;5015816;28;20029;-60
2021/03/21 09:54:55;;;;;;;13.82;7.47;;;4.00;99.90;;;;;;5060877;28;20029;-56
2021/03/21 09:57:29;;;;;;;19.48;8.95;;;4.10;99.90;;;;;;5059312;28;20115;-59
2021/03/21 10:00:29;;;;;;;16.52;9.00;;;4.10;99.90;;;;;;5072572;28;20076;-62
2021/03/21 10:03:05;;;;;;;17.13;8.00;;;4.00;99.90;;;;;;5010336;28;20038;-58
2021/03/21 10:05:38;;;;;;;18.63;10.05;;;4.00;99.90;;;;;;4961698;28;20185;-56
2021/03/21 10:08:34;;;;;;;22.98;10.55;;;4.10;99.90;;;;;;5010423;28;20025;-57
2021/03/21 10:11:07;;;;;;;18.98;8.88;;;3.90;99.90;;;;;;5010398;28;20061;-55
2021/03/21 10:13:35;;;;;;;14.52;7.82;;;3.90;99.90;;;;;;5010319;28;20072;-55
2021/03/21 10:16:15;;;;;;;13.02;6.72;;;3.90;99.90;;;;;;5010265;28;20034;-60
2021/03/21 10:18:56;;;;;;;26.80;12.02;;;3.90;99.90;;;;;;5008213;28;20034;-58
2021/03/21 10:21:25;;;;;;;15.10;9.18;;;;;;;;;;5009610;28;20038;-56
2021/03/21 10:23:51;;;;;;;21.92;12.45;;;4.20;99.90;;;;;;5010082;28;20045;-60
2021/03/21 10:26:19;;;;;;;26.38;16.83;;;4.10;99.90;;;;;;5007046;28;20064;-54
2021/03/21 10:28:56;;;;;;;21.60;13.20;;;4.40;99.90;;;;;;4998113;28;20604;-60
2021/03/21 10:31:26;;;;;;;18.88;10.77;;;4.40;99.90;;;;;;5000496;28;20046;-59
2021/03/21 10:34:15;;;;;;;19.17;12.10;;;4.40;99.90;;;;;;4999693;28;20030;-59
2021/03/21 10:36:43;;;;;;;17.52;12.05;;;4.20;99.90;;;;;;4977938;28;20431;-56
2021/03/21 10:39:11;;;;;;;15.93;10.52;;;4.30;99.90;;;;;;4975330;28;20493;-56
2021/03/21 10:42:13;;;;;;;20.88;10.77;;;4.40;99.90;;;;;;4976907;28;20034;-58
2021/03/21 10:44:39;;;;;;;25.23;10.88;;;4.40;99.90;;;;;;4994633;28;20485;-56
2021/03/21 10:47:25;;;;;;;17.23;9.68;;;4.40;99.90;;;;;;4992587;28;20031;-57
2021/03/21 10:50:01;;;;;;;15.30;8.05;;;4.50;99.90;;;;;;4994362;28;20408;-56
2021/03/21 10:52:29;;;;;;;19.13;10.20;;;4.40;99.90;;;;;;4946488;28;20135;-58
2021/03/21 10:55:14;;;;;;;19.55;9.88;;;4.50;99.90;;;;;;4992142;28;20042;-59
2021/03/21 10:57:44;;;;;;;16.63;8.70;;;4.60;99.90;;;;;;4988917;28;20081;-52
2021/03/21 11:00:17;;;;;;;20.30;9.93;;;4.70;99.90;;;;;;4971936;28;20100;-52
2021/03/21 11:02:49;;;;;;;16.90;9.27;;;4.80;99.90;;;;;;4974800;28;20031;-57
2021/03/21 11:05:30;;;;;;;14.48;8.73;;;4.70;99.90;;;;;;4974661;28;20039;-55
2021/03/21 11:08:14;;;;;;;16.13;9.02;;;5.00;99.90;;;;;;4974492;28;20046;-58
2021/03/21 11:10:49;;;;;;;16.48;8.95;;;5.10;99.90;;;;;;4974943;28;20453;-57
2021/03/21 11:13:24;;;;;;;13.32;7.75;;;5.10;99.90;;;;;;5002960;28;20094;-57
2021/03/21 11:15:51;;;;;;;14.45;9.05;;;5.00;99.90;;;;;;5061183;28;20033;-54
2021/03/21 11:18:25;;;;;;;12.05;7.88;;;5.10;99.90;;;;;;5055736;28;20033;-56
2021/03/21 11:21:04;;;;;;;12.48;7.85;;;5.10;99.90;;;;;;5056025;28;20084;-54
2021/03/21 11:23:54;;;;;;;15.20;8.05;;;5.20;99.90;;;;;;5067226;28;20021;-70
2021/03/21 11:26:27;;;;;;;13.38;7.90;;;5.20;99.90;;;;;;5065441;28;20020;-48
2021/03/21 11:29:07;;;;;;;12.40;7.45;;;5.30;99.90;;;;;;5054687;28;20472;-60
2021/03/21 11:31:38;;;;;;;14.60;8.27;;;;;;;;;;5056689;28;20119;-53
2021/03/21 11:34:33;;;;;;;12.65;7.55;;;5.50;99.90;;;;;;5055071;28;20047;-56
2021/03/21 11:37:07;;;;;;;14.55;7.90;;;5.50;99.90;;;;;;5067997;28;20403;-53
2021/03/21 11:39:58;;;;;;;12.15;7.93;;;5.60;99.90;;;;;;5055165;28;20037;-56
2021/03/21 11:42:39;;;;;;;16.55;8.93;;;5.60;99.90;;;;;;5054921;28;20052;-50
2021/03/21 11:45:20;;;;;;;14.02;6.97;;;5.70;99.90;;;;;;5035663;28;20033;-54
2021/03/21 11:47:53;;;;;;;15.93;8.32;;;5.70;99.90;;;;;;5059889;28;20064;-52
2021/03/21 11:50:31;;;;;;;13.50;8.02;;;5.80;99.90;;;;;;5009833;28;20037;-49
2021/03/21 11:52:59;;;;;;;17.42;9.10;;;5.80;99.90;;;;;;4953631;28;20792;-51
2021/03/21 11:55:30;;;;;;;14.80;8.35;;;5.90;99.90;;;;;;4954322;29;20086;-52
2021/03/21 11:58:13;;;;;;;15.30;8.88;;;5.90;99.90;;;;;;4954246;29;20039;-49
2021/03/21 12:00:45;;;;;;;14.13;8.25;;;6.00;99.90;;;;;;4954258;29;20043;-51
2021/03/21 12:03:14;;;;;;;35.80;15.70;;;6.00;99.90;;;;;;4954315;29;20151;-51
2021/03/21 12:05:55;;;;;;;15.35;8.25;;;6.00;99.90;;;;;;4954354;29;20039;-51
2021/03/21 12:08:41;;;;;;;16.33;9.48;;;6.00;99.90;;;;;;4954347;29;20058;-51
2021/03/21 12:11:25;;;;;;;14.45;8.25;;;6.20;99.90;;;;;;4954230;29;20083;-51
2021/03/21 12:13:55;;;;;;;15.25;8.60;;;6.20;99.90;;;;;;4956778;28;20039;-51
2021/03/21 12:16:40;;;;;;;13.38;8.13;;;6.20;99.90;;;;;;4992929;28;20030;-52
2021/03/21 12:19:25;;;;;;;14.23;8.23;;;6.30;99.90;;;;;;4992670;28;20118;-51
2021/03/21 12:21:54;;;;;;;16.05;8.95;;;6.30;99.90;;;;;;4992804;28;20046;-51
2021/03/21 12:24:22;;;;;;;16.40;8.95;;;6.40;99.90;;;;;;5032191;28;20037;-52
2021/03/21 12:26:51;;;;;;;17.08;8.95;;;;;;;;;;5034358;28;20055;-52
2021/03/21 12:29:23;;;;;;;14.77;8.82;;;6.60;99.90;;;;;;5056372;28;20112;-51
2021/03/21 12:31:51;;;;;;;14.05;8.30;;;6.20;99.90;;;;;;5094373;28;20051;-52
2021/03/21 12:34:29;;;;;;;13.80;8.85;;;6.50;99.90;;;;;;5091111;28;20039;-51
2021/03/21 12:37:16;;;;;;;15.15;9.20;;;6.50;99.90;;;;;;5094246;28;20024;-52
2021/03/21 12:39:47;;;;;;;15.63;9.07;;;6.60;99.90;;;;;;5093905;28;20036;-52
2021/03/21 12:42:35;;;;;;;17.42;10.52;;;6.70;99.90;;;;;;5094139;28;20028;-51
2021/03/21 12:45:23;;;;;;;19.23;10.45;;;6.70;99.90;;;;;;5041909;28;20028;-52
2021/03/21 12:47:56;;;;;;;14.27;8.65;;;;;;;;;;5094095;28;20029;-51
2021/03/21 12:50:25;;;;;;;15.73;9.07;;;;;;;;;;5094040;28;20024;-52
2021/03/21 12:52:51;;;;;;;14.55;8.75;;;7.10;99.90;;;;;;5093835;28;20046;-51
2021/03/21 12:55:18;;;;;;;13.88;8.30;;;7.00;99.90;;;;;;5093914;28;20034;-52
2021/03/21 12:57:44;;;;;;;16.60;9.18;;;7.00;99.90;;;;;;5093894;28;20050;-51
2021/03/21 13:00:17;;;;;;;16.55;9.02;;;7.20;99.90;;;;;;5058166;28;20036;-52
2021/03/21 13:02:43;;;;;;;20.02;10.20;;;7.20;99.90;;;;;;5093838;28;20024;-52
2021/03/21 13:05:27;;;;;;;17.27;9.75;;;7.00;99.90;;;;;;5092794;28;20490;-52
2021/03/21 13:07:54;;;;;;;18.45;9.45;;;7.20;99.90;;;;;;5093336;28;20027;-52
2021/03/21 13:10:21;;;;;;;16.52;9.15;;;7.10;99.90;;;;;;5093607;28;20089;-52
2021/03/21 13:12:47;;;;;;;17.40;9.93;;;7.00;99.90;;;;;;5093530;28;20081;-52
2021/03/21 13:15:13;;;;;;;14.50;8.77;;;7.10;99.90;;;;;;5093494;28;20413;-52
2021/03/21 13:17:40;;;;;;;16.70;9.57;;;;;;;;;;5093335;28;20024;-52
2021/03/21 13:20:09;;;;;;;17.33;9.50;;;7.10;99.90;;;;;;5093323;28;20374;-52
2021/03/21 13:22:35;;;;;;;17.58;9.88;;;7.10;99.90;;;;;;5093399;28;20024;-51
2021/03/21 13:25:02;;;;;;;17.70;10.00;;;7.10;99.90;;;;;;5086444;28;20491;-52
2021/03/21 13:27:28;;;;;;;15.93;9.05;;;7.10;99.90;;;;;;5092734;28;20487;-53
2021/03/21 13:29:55;;;;;;;18.23;9.68;;;7.10;99.90;;;;;;5078788;28;20052;-52
2021/03/21 13:32:20;;;;;;;15.73;9.70;;;7.10;99.90;;;;;;5060979;28;20032;-51
2021/03/21 13:34:47;;;;;;;18.27;10.50;;;7.20;99.90;;;;;;5063924;28;20028;-52
2021/03/21 13:37:12;;;;;;;17.35;9.93;;;7.20;99.90;;;;;;5062016;28;20405;-52
2021/03/21 13:39:38;;;;;;;19.40;10.73;;;6.90;99.90;;;;;;5022640;28;20048;-52
2021/03/21 13:42:05;;;;;;;20.48;11.80;;;6.90;99.90;;;;;;5052857;28;20098;-52
2021/03/21 13:44:31;;;;;;;17.63;9.98;;;6.90;99.90;;;;;;5001028;28;20037;-52
2021/03/21 13:46:57;;;;;;;20.35;10.93;;;7.00;99.90;;;;;;5052899;28;20040;-52
2021/03/21 13:49:23;;;;;;;18.60;10.45;;;6.80;99.90;;;;;;5052820;28;20091;-52
2021/03/21 13:51:49;;;;;;;18.70;10.52;;;6.80;99.90;;;;;;5017666;28;20043;-54